sensor_id;sensor_type;location;lat;lon;timestamp;pressure;altitude;pressure_sealevel;temperature;humidity
71903;BME280;59778;50.310;18.780;2022-10-16T00:08:43;99038.06;;;13.29;88.60
71903;BME280;59778;50.310;18.780;2022-10-16T00:24:06;99034.22;;;13.10;88.89
71903;BME280;59778;50.310;18.780;2022-10-16T00:39:29;99032.19;;;12.84;91.06
71903;BME280;59778;50.310;18.780;2022-10-16T00:54:50;99036.75;;;12.70;92.07
71903;BME280;59778;50.310;18.780;2022-10-16T01:41:36;99037.44;;;12.45;92.68
71903;BME280;59778;50.310;18.780;2022-10-16T01:56:59;99046.00;;;12.35;93.00
71903;BME280;59778;50.310;18.780;2022-10-16T02:12:26;99063.13;;;12.29;93.45
71903;BME280;59778;50.310;18.780;2022-10-16T02:28:07;99075.00;;;12.21;93.90
71903;BME280;59778;50.310;18.780;2022-10-16T02:43:30;99062.34;;;12.07;94.30
71903;BME280;59778;50.310;18.780;2022-10-16T02:58:51;99074.91;;;12.08;93.57
71903;BME280;59778;50.310;18.780;2022-10-16T03:14:12;99084.75;;;12.09;92.06
71903;BME280;59778;50.310;18.780;2022-10-16T03:29:33;99092.53;;;12.12;92.58
71903;BME280;59778;50.310;18.780;2022-10-16T03:44:54;99105.63;;;12.23;92.14
71903;BME280;59778;50.310;18.780;2022-10-16T04:00:15;99103.44;;;12.12;94.38
71903;BME280;59778;50.310;18.780;2022-10-16T04:15:37;99123.09;;;12.36;93.37
71903;BME280;59778;50.310;18.780;2022-10-16T04:30:58;99113.72;;;12.45;91.95
71903;BME280;59778;50.310;18.780;2022-10-16T04:46:19;99124.88;;;12.22;91.50
71903;BME280;59778;50.310;18.780;2022-10-16T05:01:40;99145.00;;;12.00;91.27
71903;BME280;59778;50.310;18.780;2022-10-16T05:17:01;99160.78;;;11.90;91.78
71903;BME280;59778;50.310;18.780;2022-10-16T05:32:22;99160.47;;;11.78;90.69
71903;BME280;59778;50.310;18.780;2022-10-16T05:47:43;99175.81;;;11.86;92.56
71903;BME280;59778;50.310;18.780;2022-10-16T06:03:04;99189.13;;;11.95;93.65
71903;BME280;59778;50.310;18.780;2022-10-16T06:18:28;99217.31;;;12.30;94.33
71903;BME280;59778;50.310;18.780;2022-10-16T06:33:52;99235.81;;;12.84;93.75
71903;BME280;59778;50.310;18.780;2022-10-16T06:49:13;99248.84;;;13.50;88.13
71903;BME280;59778;50.310;18.780;2022-10-16T07:04:36;99254.91;;;13.93;86.52
71903;BME280;59778;50.310;18.780;2022-10-16T07:19:57;99254.00;;;14.34;84.49
71903;BME280;59778;50.310;18.780;2022-10-16T07:35:19;99259.50;;;14.86;81.82
71903;BME280;59778;50.310;18.780;2022-10-16T07:50:40;99271.25;;;15.33;77.22
71903;BME280;59778;50.310;18.780;2022-10-16T08:06:03;99263.19;;;15.71;75.93
71903;BME280;59778;50.310;18.780;2022-10-16T08:21:24;99279.59;;;16.22;72.90
71903;BME280;59778;50.310;18.780;2022-10-16T08:36:46;99296.25;;;17.39;68.54
71903;BME280;59778;50.310;18.780;2022-10-16T08:52:11;99294.63;;;17.13;67.36
71903;BME280;59778;50.310;18.780;2022-10-16T09:38:29;99319.56;;;18.46;64.05
71903;BME280;59778;50.310;18.780;2022-10-16T09:53:59;99318.47;;;18.65;63.62
71903;BME280;59778;50.310;18.780;2022-10-16T10:09:37;99306.97;;;19.09;63.41
71903;BME280;59778;50.310;18.780;2022-10-16T11:12:00;99328.78;;;19.11;64.81
71903;BME280;59778;50.310;18.780;2022-10-16T11:27:37;99325.78;;;19.12;63.46
71903;BME280;59778;50.310;18.780;2022-10-16T11:43:33;99326.94;;;19.58;61.44
71903;BME280;59778;50.310;18.780;2022-10-16T11:59:13;99333.34;;;20.33;62.35
71903;BME280;59778;50.310;18.780;2022-10-16T12:14:39;99347.28;;;20.55;58.37
71903;BME280;59778;50.310;18.780;2022-10-16T12:30:05;99336.41;;;19.85;61.11
71903;BME280;59778;50.310;18.780;2022-10-16T12:45:33;99348.16;;;19.46;62.90
71903;BME280;59778;50.310;18.780;2022-10-16T13:01:06;99356.91;;;19.54;62.78
71903;BME280;59778;50.310;18.780;2022-10-16T13:31:52;99359.88;;;19.64;60.18
71903;BME280;59778;50.310;18.780;2022-10-16T13:47:17;99351.44;;;19.24;61.32
71903;BME280;59778;50.310;18.780;2022-10-16T14:02:39;99353.16;;;19.72;61.44
71903;BME280;59778;50.310;18.780;2022-10-16T14:18:01;99393.09;;;19.81;61.16
71903;BME280;59778;50.310;18.780;2022-10-16T14:33:33;99387.00;;;19.79;60.73
71903;BME280;59778;50.310;18.780;2022-10-16T14:49:03;99394.78;;;19.70;60.85
71903;BME280;59778;50.310;18.780;2022-10-16T15:04:24;99389.84;;;19.61;60.42
71903;BME280;59778;50.310;18.780;2022-10-16T15:19:46;99409.50;;;19.11;62.66
71903;BME280;59778;50.310;18.780;2022-10-16T15:35:10;99421.56;;;18.80;64.76
71903;BME280;59778;50.310;18.780;2022-10-16T15:50:32;99434.16;;;18.33;66.21
71903;BME280;59778;50.310;18.780;2022-10-16T16:05:54;99422.00;;;17.30;70.32
71903;BME280;59778;50.310;18.780;2022-10-16T16:21:15;99449.09;;;16.89;72.05
71903;BME280;59778;50.310;18.780;2022-10-16T16:36:36;99486.06;;;16.80;72.33
71903;BME280;59778;50.310;18.780;2022-10-16T16:51:57;99505.63;;;16.13;75.70
71903;BME280;59778;50.310;18.780;2022-10-16T17:07:19;99520.63;;;15.90;76.67
71903;BME280;59778;50.310;18.780;2022-10-16T17:22:40;99550.28;;;15.61;77.11
71903;BME280;59778;50.310;18.780;2022-10-16T17:38:01;99561.69;;;15.64;78.01
71903;BME280;59778;50.310;18.780;2022-10-16T17:53:22;99579.63;;;15.80;77.98
71903;BME280;59778;50.310;18.780;2022-10-16T18:08:44;99582.16;;;15.88;77.21
71903;BME280;59778;50.310;18.780;2022-10-16T18:24:05;99602.59;;;15.79;77.53
71903;BME280;59778;50.310;18.780;2022-10-16T18:39:26;99613.72;;;15.64;78.09
71903;BME280;59778;50.310;18.780;2022-10-16T18:54:47;99636.47;;;15.65;78.50
71903;BME280;59778;50.310;18.780;2022-10-16T19:10:09;99642.78;;;15.65;78.09
71903;BME280;59778;50.310;18.780;2022-10-16T19:25:30;99659.50;;;15.83;77.09
71903;BME280;59778;50.310;18.780;2022-10-16T19:40:52;99683.06;;;15.84;76.88
71903;BME280;59778;50.310;18.780;2022-10-16T19:56:15;99679.66;;;15.63;77.52
71903;BME280;59778;50.310;18.780;2022-10-16T20:11:37;99698.22;;;15.33;78.91
71903;BME280;59778;50.310;18.780;2022-10-16T20:26:58;99722.06;;;14.49;82.27
71903;BME280;59778;50.310;18.780;2022-10-16T20:42:20;99718.00;;;14.24;84.45
71903;BME280;59778;50.310;18.780;2022-10-16T20:57:41;99743.41;;;13.82;84.54
71903;BME280;59778;50.310;18.780;2022-10-16T21:13:03;99764.06;;;13.69;85.96
71903;BME280;59778;50.310;18.780;2022-10-16T21:28:24;99782.78;;;13.29;87.44
71903;BME280;59778;50.310;18.780;2022-10-16T21:43:45;99792.44;;;13.02;87.17
71903;BME280;59778;50.310;18.780;2022-10-16T21:59:06;99800.53;;;12.72;86.32
71903;BME280;59778;50.310;18.780;2022-10-16T22:14:27;99804.25;;;12.57;86.17
71903;BME280;59778;50.310;18.780;2022-10-16T22:29:52;99814.63;;;12.39;89.88
71903;BME280;59778;50.310;18.780;2022-10-16T22:45:13;99823.38;;;12.26;91.24
71903;BME280;59778;50.310;18.780;2022-10-16T23:00:34;99832.31;;;12.12;89.94
71903;BME280;59778;50.310;18.780;2022-10-16T23:15:55;99841.22;;;11.98;90.33
71903;BME280;59778;50.310;18.780;2022-10-16T23:31:17;99845.25;;;11.71;90.53
71903;BME280;59778;50.310;18.780;2022-10-16T23:46:38;99838.31;;;11.60;88.92
